createdAt,value
2018-04-19T00:00:52.211Z,99.90
2018-04-19T00:03:18.410Z,99.90
2018-04-19T00:05:45.366Z,99.90
2018-04-19T00:08:12.303Z,99.90
2018-04-19T00:10:39.271Z,99.90
2018-04-19T00:13:05.459Z,99.90
2018-04-19T00:15:31.676Z,99.90
2018-04-19T00:17:57.891Z,99.90
2018-04-19T00:20:24.100Z,99.90
2018-04-19T00:22:50.318Z,99.90
2018-04-19T00:25:16.559Z,99.90
2018-04-19T00:27:42.774Z,99.90
2018-04-19T00:30:08.993Z,99.90
2018-04-19T00:32:35.979Z,99.90
2018-04-19T00:35:02.219Z,99.90
2018-04-19T00:37:28.410Z,99.90
2018-04-19T00:39:54.648Z,99.90
2018-04-19T00:42:20.842Z,99.90
2018-04-19T00:44:47.052Z,99.90
2018-04-19T00:47:13.231Z,99.90
2018-04-19T00:49:39.458Z,99.90
2018-04-19T00:52:05.670Z,99.90
2018-04-19T00:54:32.607Z,99.90
2018-04-19T00:56:59.562Z,99.90
2018-04-19T00:59:26.514Z,99.90
2018-04-19T01:01:53.472Z,99.90
2018-04-19T01:04:19.691Z,99.90
2018-04-19T01:06:46.648Z,99.90
2018-04-19T01:09:12.865Z,99.90
2018-04-19T01:11:39.805Z,99.90
2018-04-19T01:14:06.758Z,99.90
2018-04-19T01:16:33.695Z,99.90
2018-04-19T01:19:00.652Z,99.90
2018-04-19T01:21:27.627Z,99.90
2018-04-19T01:23:53.829Z,99.90
2018-04-19T01:26:20.812Z,99.90
2018-04-19T01:28:47.026Z,99.90
2018-04-19T01:31:13.288Z,99.90
2018-04-19T01:33:39.500Z,99.90
2018-04-19T01:36:11.786Z,99.90
2018-04-19T01:38:38.076Z,99.90
2018-04-19T01:41:04.263Z,99.90
2018-04-19T01:43:30.515Z,99.90
2018-04-19T01:45:56.729Z,99.90
2018-04-19T01:48:22.919Z,99.90
2018-04-19T01:50:49.154Z,99.90
2018-04-19T01:53:15.345Z,99.90
2018-04-19T01:55:42.293Z,99.90
2018-04-19T01:58:09.228Z,99.90
2018-04-19T02:00:35.450Z,99.90
2018-04-19T02:03:01.680Z,99.90
2018-04-19T02:05:27.888Z,99.90
2018-04-19T02:07:54.106Z,99.90
2018-04-19T02:10:20.336Z,99.90
2018-04-19T02:12:46.552Z,99.90
2018-04-19T02:15:12.747Z,99.90
2018-04-19T02:17:39.706Z,99.90
2018-04-19T02:20:05.938Z,99.90
2018-04-19T02:22:32.123Z,99.90
2018-04-19T02:24:58.346Z,99.90
2018-04-19T02:27:24.534Z,99.90
2018-04-19T02:29:50.779Z,99.90
2018-04-19T02:32:17.006Z,99.90
2018-04-19T02:34:43.247Z,99.90
2018-04-19T02:37:09.501Z,99.90
2018-04-19T02:39:35.720Z,99.90
2018-04-19T02:42:01.943Z,99.90
2018-04-19T02:44:28.141Z,99.90
2018-04-19T02:46:54.371Z,99.90
2018-04-19T02:49:20.561Z,99.90
2018-04-19T02:51:46.754Z,99.90
2018-04-19T02:54:12.971Z,99.90
2018-04-19T02:56:39.235Z,99.90
2018-04-19T02:59:05.435Z,99.90
2018-04-19T03:01:31.654Z,99.90
2018-04-19T03:03:57.886Z,99.90
2018-04-19T03:06:24.898Z,99.90
2018-04-19T03:08:51.845Z,99.90
2018-04-19T03:11:18.831Z,99.90
2018-04-19T03:13:45.031Z,99.90
2018-04-19T03:16:11.978Z,99.90
2018-04-19T03:18:38.907Z,99.90
2018-04-19T03:21:05.148Z,99.90
2018-04-19T03:23:32.083Z,99.90
2018-04-19T03:25:58.326Z,99.90
2018-04-19T03:28:25.307Z,99.90
2018-04-19T03:30:53.432Z,99.90
2018-04-19T03:33:47.963Z,99.90
2018-04-19T03:36:16.928Z,99.90
2018-04-19T03:38:44.072Z,99.90
2018-04-19T03:41:10.449Z,99.90
2018-04-19T03:43:36.867Z,99.90
2018-04-19T03:46:04.204Z,99.90
2018-04-19T03:48:31.361Z,99.90
2018-04-19T03:50:58.480Z,99.90
2018-04-19T03:53:24.911Z,99.90
2018-04-19T03:55:51.299Z,99.90
2018-04-19T03:58:17.664Z,99.90
2018-04-19T04:00:44.047Z,99.90
2018-04-19T04:03:11.150Z,99.90
2018-04-19T04:05:37.552Z,99.90
2018-04-19T04:08:03.941Z,99.90
2018-04-19T04:10:31.065Z,99.90
2018-04-19T04:12:57.448Z,99.90
2018-04-19T04:15:24.556Z,99.90
2018-04-19T04:18:03.371Z,99.90
2018-04-19T04:20:41.997Z,99.90
2018-04-19T04:23:30.332Z,99.90
2018-04-19T04:25:56.700Z,99.90
2018-04-19T04:28:23.092Z,99.90
2018-04-19T04:30:49.536Z,99.90
2018-04-19T04:33:15.926Z,99.90
2018-04-19T04:35:43.048Z,99.90
2018-04-19T04:38:09.457Z,99.90
2018-04-19T04:40:35.824Z,99.90
2018-04-19T04:43:02.224Z,99.90
2018-04-19T04:45:28.765Z,99.90
2018-04-19T04:47:55.149Z,99.90
2018-04-19T04:50:22.268Z,99.90
2018-04-19T04:52:48.672Z,99.90
2018-04-19T04:55:15.043Z,99.90
2018-04-19T04:57:41.435Z,99.90
2018-04-19T05:00:07.988Z,99.90
2018-04-19T05:02:34.395Z,99.90
2018-04-19T05:05:00.765Z,99.90
2018-04-19T05:07:27.192Z,99.90
2018-04-19T05:09:53.580Z,99.90
2018-04-19T05:12:20.707Z,99.90
2018-04-19T05:14:47.097Z,99.90
2018-04-19T05:17:14.667Z,99.90
2018-04-19T05:19:41.120Z,99.90
2018-04-19T05:22:07.524Z,99.90
2018-04-19T05:24:33.890Z,99.90
2018-04-19T05:27:00.292Z,99.90
2018-04-19T05:29:26.647Z,99.90
2018-04-19T05:31:53.067Z,99.90
2018-04-19T05:34:19.480Z,99.90
2018-04-19T05:36:45.888Z,99.90
2018-04-19T05:39:12.247Z,99.90
2018-04-19T05:41:38.649Z,99.90
2018-04-19T05:44:05.042Z,99.90
2018-04-19T05:46:31.429Z,99.90
2018-04-19T05:48:58.558Z,99.90
2018-04-19T05:51:24.928Z,99.90
2018-04-19T05:53:52.056Z,99.90
2018-04-19T05:56:18.423Z,99.90
2018-04-19T05:58:44.854Z,99.90
2018-04-19T06:01:11.280Z,99.90
2018-04-19T06:03:38.387Z,99.90
2018-04-19T06:06:04.801Z,99.90
2018-04-19T06:08:31.175Z,99.90
2018-04-19T06:10:58.321Z,99.90
2018-04-19T06:13:24.717Z,99.90
2018-04-19T06:15:51.081Z,99.90
2018-04-19T06:18:17.475Z,99.90
2018-04-19T06:20:43.835Z,99.90
2018-04-19T06:23:10.225Z,99.90
2018-04-19T06:25:36.580Z,99.90
2018-04-19T06:28:02.944Z,99.90
2018-04-19T06:30:29.345Z,99.90
2018-04-19T06:32:55.716Z,99.90
2018-04-19T06:35:22.153Z,99.90
2018-04-19T06:37:48.564Z,99.90
2018-04-19T06:40:14.975Z,99.90
2018-04-19T06:42:41.340Z,99.90
2018-04-19T06:45:07.740Z,99.90
2018-04-19T06:47:34.169Z,99.90
2018-04-19T06:50:01.047Z,99.90
2018-04-19T06:52:27.439Z,99.90
2018-04-19T06:54:54.560Z,99.90
2018-04-19T06:57:20.935Z,99.90
2018-04-19T06:59:47.390Z,99.90
2018-04-19T07:02:13.595Z,99.90
2018-04-19T07:04:39.805Z,99.90
2018-04-19T07:07:06.738Z,99.90
2018-04-19T07:09:32.978Z,99.90
2018-04-19T07:11:59.905Z,99.90
2018-04-19T07:14:26.121Z,99.90
2018-04-19T07:16:52.306Z,99.90
2018-04-19T07:19:18.523Z,99.90
2018-04-19T07:21:45.481Z,99.90
2018-04-19T07:24:11.713Z,99.90
2018-04-19T07:26:37.926Z,99.90
2018-04-19T07:29:04.877Z,99.90
2018-04-19T07:31:31.843Z,99.90
2018-04-19T07:33:58.271Z,99.90
2018-04-19T07:36:24.638Z,99.90
2018-04-19T07:38:51.015Z,99.90
2018-04-19T07:41:18.145Z,99.90
2018-04-19T07:43:44.568Z,99.90
2018-04-19T07:46:11.043Z,99.90
2018-04-19T07:48:37.419Z,99.90
2018-04-19T07:51:03.825Z,99.90
2018-04-19T07:53:30.264Z,99.90
2018-04-19T07:55:56.645Z,99.90
2018-04-19T07:58:23.075Z,99.90
2018-04-19T08:00:49.469Z,99.90
2018-04-19T08:03:15.839Z,99.90
2018-04-19T08:05:42.054Z,99.90
2018-04-19T08:08:08.258Z,99.90
2018-04-19T08:10:34.474Z,99.90
2018-04-19T08:13:01.406Z,99.90
2018-04-19T08:15:27.621Z,99.90
2018-04-19T08:17:53.811Z,99.90
2018-04-19T08:20:20.040Z,99.90
2018-04-19T08:22:46.270Z,99.90
2018-04-19T08:25:12.467Z,99.90
2018-04-19T08:27:39.455Z,99.80
2018-04-19T08:30:05.648Z,99.70
2018-04-19T08:32:32.618Z,99.20
2018-04-19T08:34:58.838Z,99.20
2018-04-19T08:37:25.022Z,98.60
2018-04-19T08:39:51.235Z,99.30
2018-04-19T08:42:17.470Z,99.30
2018-04-19T08:44:43.708Z,98.30
2018-04-19T08:47:09.977Z,98.90
2018-04-19T08:49:36.931Z,97.70
2018-04-19T08:52:03.195Z,97.70
2018-04-19T08:54:29.441Z,97.10
2018-04-19T08:56:55.641Z,96.40
2018-04-19T08:59:21.862Z,96.50
2018-04-19T09:01:48.054Z,95.60
2018-04-19T09:04:15.008Z,94.10
2018-04-19T09:06:41.962Z,94.10
2018-04-19T09:09:08.893Z,94.20
2018-04-19T09:11:35.847Z,94.60
2018-04-19T09:14:02.824Z,91.20
2018-04-19T09:16:29.025Z,91.10
2018-04-19T09:18:55.975Z,93.50
2018-04-19T09:21:22.914Z,93.40
2018-04-19T09:23:49.865Z,91.30
2018-04-19T09:26:16.831Z,88.90
2018-04-19T09:28:43.061Z,88.80
2018-04-19T09:31:09.271Z,87.60
2018-04-19T09:33:36.276Z,90.00
2018-04-19T09:36:02.496Z,89.90
2018-04-19T09:38:28.718Z,85.00
2018-04-19T09:40:54.950Z,83.00
2018-04-19T09:43:21.119Z,81.40
2018-04-19T09:45:47.354Z,79.70
2018-04-19T09:48:13.594Z,83.70
2018-04-19T09:50:40.549Z,80.00
2018-04-19T09:53:07.522Z,80.00
2018-04-19T09:55:33.729Z,80.10
2018-04-19T09:58:06.618Z,76.20
2018-04-19T10:00:33.585Z,74.40
2018-04-19T10:02:59.840Z,74.20
2018-04-19T10:05:26.074Z,74.70
2018-04-19T10:07:52.287Z,75.70
2018-04-19T10:10:18.502Z,73.40
2018-04-19T10:12:44.686Z,71.00
2018-04-19T10:15:10.893Z,69.60
2018-04-19T10:17:37.089Z,70.20
2018-04-19T10:20:03.303Z,70.70
2018-04-19T10:22:30.260Z,64.80
2018-04-19T10:24:56.450Z,64.80
2018-04-19T10:27:22.680Z,64.60
2018-04-19T10:29:48.895Z,61.60
2018-04-19T10:32:15.083Z,63.30
2018-04-19T10:34:41.300Z,61.70
2018-04-19T10:37:07.665Z,63.80
2018-04-19T10:39:34.082Z,63.30
2018-04-19T10:42:00.452Z,59.70
2018-04-19T10:44:26.823Z,59.40
2018-04-19T10:46:53.987Z,59.60
2018-04-19T10:49:20.352Z,59.50
2018-04-19T10:51:46.740Z,58.80
2018-04-19T10:54:13.839Z,62.40
2018-04-19T10:56:40.239Z,62.40
2018-04-19T10:59:06.616Z,62.70
2018-04-19T11:01:32.967Z,61.60
2018-04-19T11:04:00.091Z,62.60
2018-04-19T11:06:26.492Z,62.60
2018-04-19T11:08:52.891Z,60.30
2018-04-19T11:11:19.263Z,62.30
2018-04-19T11:13:46.360Z,63.70
2018-04-19T11:16:12.737Z,63.60
2018-04-19T11:18:39.118Z,65.60
2018-04-19T11:21:05.504Z,63.60
2018-04-19T11:23:31.883Z,63.60
2018-04-19T11:25:58.074Z,66.30
2018-04-19T11:28:24.288Z,62.50
2018-04-19T11:30:51.215Z,63.60
2018-04-19T11:33:17.399Z,63.60
2018-04-19T11:35:43.606Z,63.00
2018-04-19T11:38:09.815Z,63.60
2018-04-19T11:40:36.747Z,61.80
2018-04-19T11:43:02.980Z,61.80
2018-04-19T11:45:29.165Z,61.30
2018-04-19T11:47:55.377Z,61.30
2018-04-19T11:50:21.590Z,64.10
2018-04-19T11:52:48.527Z,64.90
2018-04-19T11:55:15.483Z,60.90
2018-04-19T11:57:42.437Z,59.30
2018-04-19T12:00:08.691Z,59.20
2018-04-19T12:02:34.903Z,58.80
2018-04-19T12:05:01.096Z,58.30
2018-04-19T12:07:27.318Z,61.50
2018-04-19T12:09:53.530Z,58.50
2018-04-19T12:12:19.745Z,57.10
2018-04-19T12:14:45.962Z,56.20
2018-04-19T12:17:12.154Z,57.10
2018-04-19T12:19:38.406Z,54.50
2018-04-19T12:22:04.599Z,55.80
2018-04-19T12:24:30.821Z,53.90
2018-04-19T12:26:57.063Z,50.80
2018-04-19T12:29:23.277Z,51.80
2018-04-19T12:31:49.523Z,51.10
2018-04-19T12:34:15.726Z,50.20
2018-04-19T12:36:41.998Z,50.30
2018-04-19T12:39:08.941Z,51.40
2018-04-19T12:41:35.920Z,49.70
2018-04-19T12:44:02.144Z,49.60
2018-04-19T12:46:28.338Z,47.30
2018-04-19T12:48:55.299Z,50.40
2018-04-19T12:51:22.231Z,52.30
2018-04-19T12:53:48.421Z,52.30
2018-04-19T12:56:14.662Z,50.20
2018-04-19T12:58:40.872Z,51.20
2018-04-19T13:01:07.114Z,51.50
2018-04-19T13:03:33.345Z,50.70
2018-04-19T13:05:59.587Z,49.70
2018-04-19T13:08:25.830Z,51.30
2018-04-19T13:10:52.058Z,48.00
2018-04-19T13:13:18.252Z,48.60
2018-04-19T13:15:44.503Z,48.00
2018-04-19T13:18:10.738Z,47.60
2018-04-19T13:20:36.937Z,47.80
2018-04-19T13:23:03.153Z,48.20
2018-04-19T13:25:29.348Z,48.30
2018-04-19T13:27:55.570Z,49.00
2018-04-19T13:30:21.788Z,48.10
2018-04-19T13:32:47.980Z,47.60
2018-04-19T13:35:14.194Z,43.60
2018-04-19T13:37:41.165Z,45.20
2018-04-19T13:40:07.379Z,45.10
2018-04-19T13:42:33.595Z,44.70
2018-04-19T13:45:00.535Z,44.00
2018-04-19T13:47:27.507Z,45.10
2018-04-19T13:49:54.803Z,45.00
2018-04-19T13:52:21.019Z,45.90
2018-04-19T13:54:47.231Z,46.20
2018-04-19T13:57:13.444Z,43.70
2018-04-19T13:59:39.669Z,42.20
2018-04-19T14:02:06.659Z,44.10
2018-04-19T14:04:32.988Z,44.00
2018-04-19T14:06:59.248Z,43.90
2018-04-19T14:09:25.475Z,40.80
2018-04-19T14:11:51.683Z,41.50
2018-04-19T14:14:18.031Z,41.80
2018-04-19T14:16:44.311Z,41.30
2018-04-19T14:19:10.523Z,41.30
2018-04-19T14:21:37.482Z,40.30
2018-04-19T14:24:03.674Z,40.20
2018-04-19T14:26:30.632Z,39.60
2018-04-19T14:28:56.830Z,39.60
2018-04-19T14:31:23.014Z,40.80
2018-04-19T14:33:49.968Z,41.30
2018-04-19T14:36:16.164Z,41.30
2018-04-19T14:38:42.390Z,42.30
2018-04-19T14:41:09.346Z,43.30
2018-04-19T14:43:35.602Z,43.20
2018-04-19T14:46:01.791Z,43.00
2018-04-19T14:48:27.978Z,43.60
2018-04-19T14:50:54.194Z,44.70
2018-04-19T14:53:20.403Z,44.70
2018-04-19T14:55:47.340Z,44.20
2018-04-19T14:58:14.294Z,43.70
2018-04-19T15:00:41.247Z,45.00
2018-04-19T15:03:08.182Z,42.50
2018-04-19T15:05:35.162Z,42.00
2018-04-19T15:08:01.361Z,41.50
2018-04-19T15:10:28.311Z,41.90
2018-04-19T15:12:55.270Z,42.40
2018-04-19T15:15:22.235Z,42.80
2018-04-19T15:17:48.434Z,42.70
2018-04-19T15:20:15.394Z,43.60
2018-04-19T15:22:42.354Z,43.50
2018-04-19T15:25:08.575Z,43.40
2018-04-19T15:27:34.786Z,43.30
2018-04-19T15:30:01.745Z,43.20
2018-04-19T15:32:28.720Z,43.30
2018-04-19T15:34:54.934Z,43.10
2018-04-19T15:37:21.231Z,41.00
2018-04-19T15:39:47.456Z,41.40
2018-04-19T15:42:13.669Z,41.50
2018-04-19T15:44:39.891Z,41.60
2018-04-19T15:47:06.105Z,41.30
2018-04-19T15:49:32.301Z,42.50
2018-04-19T15:51:59.267Z,43.30
2018-04-19T15:54:25.500Z,43.20
2018-04-19T15:56:51.718Z,43.60
2018-04-19T15:59:17.971Z,43.40
2018-04-19T16:01:44.193Z,42.80
2018-04-19T16:04:10.460Z,42.60
2018-04-19T16:06:36.686Z,42.40
2018-04-19T16:09:02.959Z,43.30
2018-04-19T16:11:29.976Z,43.80
2018-04-19T16:13:56.229Z,43.80
2018-04-19T16:16:23.162Z,42.20
2018-04-19T16:18:49.403Z,42.10
2018-04-19T16:21:16.359Z,43.80
2018-04-19T16:23:43.340Z,43.20
2018-04-19T16:26:09.554Z,43.10
2018-04-19T16:28:35.787Z,43.50
2018-04-19T16:31:02.008Z,43.80
2018-04-19T16:33:28.251Z,44.60
2018-04-19T16:35:54.484Z,45.50
2018-04-19T16:38:20.715Z,46.10
2018-04-19T16:40:46.947Z,46.90
2018-04-19T16:43:13.175Z,47.50
2018-04-19T16:45:39.371Z,47.40
2018-04-19T16:48:06.329Z,47.50
2018-04-19T16:50:32.587Z,47.40
2018-04-19T16:52:58.774Z,47.40
2018-04-19T16:55:25.744Z,48.30
2018-04-19T16:57:52.015Z,48.20
2018-04-19T17:00:18.210Z,48.30
2018-04-19T17:02:44.432Z,49.20
2018-04-19T17:05:10.702Z,49.20
2018-04-19T17:07:36.983Z,48.80
2018-04-19T17:10:03.987Z,47.30
2018-04-19T17:12:30.218Z,47.20
2018-04-19T17:14:56.433Z,47.10
2018-04-19T17:17:22.651Z,47.30
2018-04-19T17:19:48.851Z,47.30
2018-04-19T17:22:15.846Z,47.50
2018-04-19T17:24:42.080Z,47.40
2018-04-19T17:27:08.291Z,47.00
2018-04-19T17:29:34.501Z,47.50
2018-04-19T17:32:00.711Z,47.70
2018-04-19T17:34:27.644Z,48.40
2018-04-19T17:36:53.834Z,48.40
2018-04-19T17:39:20.066Z,49.20
2018-04-19T17:41:46.280Z,49.10
2018-04-19T17:44:12.499Z,49.60
2018-04-19T17:46:38.745Z,49.70
2018-04-19T17:49:04.965Z,50.20
2018-04-19T17:51:31.182Z,50.50
2018-04-19T17:53:57.450Z,51.00
2018-04-19T17:56:23.676Z,51.60
2018-04-19T17:58:49.998Z,52.10
2018-04-19T18:01:16.234Z,52.90
2018-04-19T18:03:42.443Z,53.40
2018-04-19T18:06:08.910Z,54.20
2018-04-19T18:08:35.348Z,54.90
2018-04-19T18:11:01.833Z,55.60
2018-04-19T18:13:28.323Z,56.30
2018-04-19T18:15:54.755Z,56.70
2018-04-19T18:18:20.978Z,57.30
2018-04-19T18:20:47.194Z,57.90
2018-04-19T18:23:13.402Z,58.20
2018-04-19T18:25:39.590Z,58.40
2018-04-19T18:28:05.819Z,58.90
2018-04-19T18:30:32.035Z,59.60
2018-04-19T18:32:58.240Z,61.10
2018-04-19T18:35:24.471Z,63.30
2018-04-19T18:37:50.659Z,64.80
2018-04-19T18:40:17.637Z,68.10
2018-04-19T18:42:43.871Z,67.90
2018-04-19T18:45:10.215Z,69.40
2018-04-19T18:47:36.463Z,71.00
2018-04-19T18:50:04.344Z,73.50
2018-04-19T18:52:32.398Z,74.30
2018-04-19T18:54:59.512Z,76.00
2018-04-19T18:57:27.972Z,76.00
2018-04-19T18:59:56.949Z,78.10
2018-04-19T19:02:24.972Z,77.90
2018-04-19T19:04:53.639Z,79.00
2018-04-19T19:07:23.092Z,80.70
2018-04-19T19:09:51.196Z,80.60
2018-04-19T19:12:19.485Z,81.90
2018-04-19T19:14:49.521Z,83.90
2018-04-19T19:17:30.213Z,83.80
2018-04-19T19:20:10.983Z,85.00
2018-04-19T19:22:37.649Z,87.00
2018-04-19T19:25:04.053Z,90.10
2018-04-19T19:27:30.484Z,91.90
2018-04-19T19:29:56.852Z,94.20
2018-04-19T19:32:23.262Z,99.90
2018-04-19T19:34:49.684Z,99.90
2018-04-19T19:37:17.140Z,99.90
2018-04-19T19:39:43.543Z,99.90
2018-04-19T19:42:10.699Z,99.90
2018-04-19T19:44:37.998Z,99.90
2018-04-19T19:47:04.636Z,99.90
2018-04-19T19:49:31.003Z,99.90
2018-04-19T19:51:57.461Z,99.90
2018-04-19T19:54:24.574Z,99.90
2018-04-19T19:56:50.801Z,99.90
2018-04-19T19:59:16.999Z,99.90
2018-04-19T20:01:43.421Z,99.90
2018-04-19T20:04:09.856Z,99.90
2018-04-19T20:06:36.965Z,99.90
2018-04-19T20:09:03.436Z,99.90
2018-04-19T20:11:30.551Z,99.90
2018-04-19T20:13:56.935Z,99.90
2018-04-19T20:16:23.349Z,99.90
2018-04-19T20:18:50.544Z,99.90
2018-04-19T20:21:17.081Z,99.90
2018-04-19T20:23:43.513Z,99.90
2018-04-19T20:26:09.919Z,99.90
2018-04-19T20:28:37.027Z,99.90
2018-04-19T20:31:03.420Z,99.90
2018-04-19T20:33:29.810Z,99.90
2018-04-19T20:35:56.177Z,99.90
2018-04-19T20:38:22.581Z,99.90
2018-04-19T20:40:48.948Z,99.90
2018-04-19T20:43:15.345Z,99.90
2018-04-19T20:45:41.747Z,99.90
2018-04-19T20:48:08.136Z,99.90
2018-04-19T20:50:35.264Z,99.90
2018-04-19T20:53:02.427Z,99.90
2018-04-19T20:55:28.824Z,99.90
2018-04-19T20:57:55.220Z,99.90
2018-04-19T21:00:21.591Z,99.90
2018-04-19T21:02:47.998Z,99.90
2018-04-19T21:05:14.391Z,99.90
2018-04-19T21:07:40.797Z,99.90
2018-04-19T21:10:07.216Z,99.90
2018-04-19T21:12:33.655Z,99.90
2018-04-19T21:15:00.048Z,99.90
2018-04-19T21:17:27.155Z,99.90
2018-04-19T21:19:53.599Z,99.90
2018-04-19T21:22:19.997Z,99.90
2018-04-19T21:24:46.488Z,99.90
2018-04-19T21:27:12.921Z,99.90
2018-04-19T21:29:39.380Z,99.90
2018-04-19T21:32:05.787Z,99.90
2018-04-19T21:34:32.905Z,99.90
2018-04-19T21:36:59.305Z,99.90
2018-04-19T21:39:25.691Z,99.90
2018-04-19T21:41:52.056Z,99.90
2018-04-19T21:44:19.190Z,99.90
2018-04-19T21:46:45.565Z,99.90
2018-04-19T21:49:11.943Z,99.90
2018-04-19T21:51:38.304Z,99.90
2018-04-19T21:54:05.436Z,99.90
2018-04-19T21:56:32.575Z,99.90
2018-04-19T21:58:58.944Z,99.90
2018-04-19T22:01:26.078Z,99.90
2018-04-19T22:03:53.185Z,99.90
2018-04-19T22:06:19.571Z,99.90
2018-04-19T22:08:46.681Z,99.90
2018-04-19T22:11:13.064Z,99.90
2018-04-19T22:13:39.459Z,99.90
2018-04-19T22:16:05.827Z,99.90
2018-04-19T22:18:32.960Z,99.90
2018-04-19T22:20:59.348Z,99.90
2018-04-19T22:26:16.243Z,99.90
2018-04-19T22:28:43.344Z,99.90
2018-04-19T22:31:09.731Z,99.90
2018-04-19T22:33:36.836Z,99.90
2018-04-19T22:36:03.282Z,99.90
2018-04-19T22:38:29.724Z,99.90
2018-04-19T22:40:56.158Z,99.90
2018-04-19T22:43:22.567Z,99.90
2018-04-19T22:45:48.937Z,99.90
2018-04-19T22:48:16.115Z,99.90
2018-04-19T22:50:42.527Z,99.90
2018-04-19T22:53:09.650Z,99.90
2018-04-19T22:55:36.034Z,99.90
2018-04-19T22:58:02.442Z,99.90
